Time;durP1;ratioP1;P1;durP2;ratioP2;P2;SDS_P1;SDS_P2;PMS_P1;PMS_P2;Temp;Humidity;BMP_temperature;BMP_pressure;BME280_temperature;BME280_humidity;BME280_pressure;Samples;Min_cycle;Max_cycle;Signal;HPM_P1;HPM_P2
2023/06/09 00:02:04;;;;;;;7.38;4.70;;;;;;;18.05;100.00;98191.63;5157108;27;20137;-63
2023/06/09 00:04:32;;;;;;;13.05;4.90;;;;;;;17.82;100.00;98176.78;5157351;27;20055;-60
2023/06/09 00:06:59;;;;;;;5.88;4.72;;;;;;;17.75;100.00;98168.63;5157335;27;20146;-63
2023/06/09 00:09:25;;;;;;;10.90;5.38;;;;;;;17.81;100.00;98166.13;5159204;27;20051;-54
2023/06/09 00:11:51;;;;;;;7.85;5.43;;;;;;;17.91;100.00;98158.75;5160773;27;20449;-58
2023/06/09 00:14:17;;;;;;;7.72;5.18;;;;;;;17.88;100.00;98172.25;5160734;27;20050;-58
2023/06/09 00:16:45;;;;;;;7.38;5.35;;;;;;;17.74;100.00;98161.53;5160884;27;20050;-63
2023/06/09 00:19:11;;;;;;;11.73;5.03;;;;;;;17.74;100.00;98158.75;5160651;27;20069;-57
2023/06/09 00:21:37;;;;;;;12.70;5.20;;;;;;;17.71;100.00;98158.88;5160924;27;20047;-63
2023/06/09 00:24:05;;;;;;;10.25;5.38;;;;;;;17.69;100.00;98155.75;5160456;27;20139;-55
2023/06/09 00:26:31;;;;;;;8.35;5.13;;;;;;;17.74;100.00;98160.75;5160763;27;20096;-57
2023/06/09 00:28:57;;;;;;;11.55;5.50;;;;;;;17.55;100.00;98154.13;5160360;27;20047;-62
2023/06/09 00:31:23;;;;;;;6.30;4.82;;;;;;;17.45;100.00;98152.41;5160786;27;20054;-63
2023/06/09 00:33:49;;;;;;;9.95;5.20;;;;;;;17.63;100.00;98155.50;5160570;27;20042;-63
2023/06/09 00:36:15;;;;;;;11.73;5.38;;;;;;;17.60;100.00;98156.38;5160377;27;20327;-63
2023/06/09 00:38:41;;;;;;;9.65;5.50;;;;;;;17.59;100.00;98152.84;5160297;27;20089;-58
2023/06/09 00:41:07;;;;;;;10.73;7.22;;;;;;;17.58;100.00;98156.03;5160285;27;20191;-55
2023/06/09 00:43:33;;;;;;;10.55;5.88;;;;;;;17.51;100.00;98148.69;5160433;27;20103;-53
2023/06/09 00:46:01;;;;;;;11.43;5.57;;;;;;;17.21;100.00;98163.69;5160258;27;20055;-54
2023/06/09 00:48:27;;;;;;;13.25;6.03;;;;;;;17.37;100.00;98165.69;5160432;27;20046;-62
2023/06/09 00:50:55;;;;;;;8.25;5.65;;;;;;;17.20;100.00;98173.22;5160071;27;20065;-55
2023/06/09 00:53:21;;;;;;;6.57;4.97;;;;;;;17.33;100.00;98167.78;5160401;27;20055;-56
2023/06/09 00:55:47;;;;;;;10.30;5.00;;;;;;;17.26;100.00;98173.47;5160012;27;20046;-58
2023/06/09 00:58:14;;;;;;;10.60;6.90;;;;;;;17.21;100.00;98172.00;5160409;27;20047;-55
2023/06/09 01:00:40;;;;;;;6.57;5.20;;;;;;;17.24;100.00;98157.28;5159749;27;20069;-62
2023/06/09 01:03:10;;;;;;;11.93;5.57;;;;;;;17.29;100.00;98164.28;5160021;27;20046;-58
2023/06/09 01:05:38;;;;;;;8.82;5.53;;;;;;;17.11;100.00;98173.81;5159559;27;20063;-55
2023/06/09 01:08:14;;;;;;;10.13;4.82;;;;;;;17.14;100.00;98172.97;5159919;27;20174;-58
2023/06/09 01:10:45;;;;;;;8.93;5.60;;;;;;;17.10;100.00;98168.75;5160143;27;20115;-55
2023/06/09 01:13:21;;;;;;;9.73;5.60;;;;;;;17.11;100.00;98181.34;5159627;27;20191;-61
2023/06/09 01:15:54;;;;;;;11.50;5.80;;;;;;;17.14;100.00;98170.19;5160048;27;20050;-62
2023/06/09 01:18:24;;;;;;;9.88;5.78;;;;;;;17.14;100.00;98174.97;5159703;27;20046;-58
2023/06/09 01:21:01;;;;;;;7.70;5.75;;;;;;;17.08;100.00;98171.16;5158603;27;20062;-63
2023/06/09 01:23:37;;;;;;;8.00;5.90;;;;;;;17.01;100.00;98180.41;5159775;27;20137;-55
2023/06/09 01:26:04;;;;;;;13.20;5.72;;;;;;;16.97;100.00;98179.72;5159650;27;20319;-60
2023/06/09 01:28:32;;;;;;;7.03;5.40;;;;;;;16.93;100.00;98190.09;5159554;27;20369;-58
2023/06/09 01:30:58;;;;;;;11.35;6.25;;;;;;;16.90;100.00;98197.28;5159519;27;20051;-55
2023/06/09 01:33:25;;;;;;;10.02;6.60;;;;;;;16.90;100.00;98205.56;5159479;27;20149;-55
2023/06/09 01:35:53;;;;;;;9.40;7.57;;;;;;;16.85;100.00;98214.38;5159259;27;20042;-61
2023/06/09 01:38:20;;;;;;;11.05;6.25;;;;;;;16.76;100.00;98233.59;5159657;27;20053;-63
2023/06/09 01:40:47;;;;;;;11.15;6.25;;;;;;;16.84;100.00;98248.03;5159451;27;20085;-62
2023/06/09 01:43:14;;;;;;;12.20;6.07;;;;;;;16.69;100.00;98262.16;5159059;27;20486;-55
2023/06/09 01:45:40;;;;;;;10.02;6.57;;;;;;;16.71;100.00;98278.31;5159104;27;20195;-59
2023/06/09 01:48:13;;;;;;;11.25;6.13;;;;;;;16.67;100.00;98261.03;5159290;27;20054;-55
2023/06/09 01:50:49;;;;;;;11.68;6.72;;;;;;;16.74;100.00;98283.00;5159432;27;20145;-59
2023/06/09 01:53:18;;;;;;;16.40;8.65;;;;;;;16.64;100.00;98318.00;5159129;27;20047;-59
2023/06/09 01:55:49;;;;;;;10.93;6.28;;;;;;;16.74;100.00;98302.38;5159416;27;20107;-54
2023/06/09 01:58:21;;;;;;;15.10;6.60;;;;;;;16.71;100.00;98294.94;5158881;27;20054;-59
2023/06/09 02:00:49;;;;;;;10.15;6.43;;;;;;;16.67;100.00;98308.06;5159282;27;20141;-55
2023/06/09 02:03:19;;;;;;;9.27;5.88;;;;;;;16.68;100.00;98304.09;5158807;27;20133;-61
2023/06/09 02:05:46;;;;;;;10.80;6.35;;;;;;;16.66;100.00;98314.78;5159297;27;20050;-63
2023/06/09 02:08:12;;;;;;;12.63;6.80;;;;;;;16.56;100.00;98318.56;5158727;27;20051;-63
2023/06/09 02:10:39;;;;;;;14.25;6.45;;;;;;;16.61;100.00;98354.81;5158702;27;20070;-58
2023/06/09 02:13:12;;;;;;;10.77;6.45;;;;;;;16.60;100.00;98363.56;5159237;27;20085;-56
2023/06/09 02:15:38;;;;;;;9.60;6.65;;;;;;;16.67;100.00;98357.88;5158823;27;20050;-61
2023/06/09 02:18:04;;;;;;;12.88;6.40;;;;;;;16.72;100.00;98357.38;5158960;27;20047;-61
2023/06/09 02:20:30;;;;;;;12.65;7.15;;;;;;;16.76;100.00;98344.28;5158607;27;20203;-62
2023/06/09 02:22:56;;;;;;;9.20;6.32;;;;;;;16.86;100.00;98328.66;5158965;27;20141;-60
2023/06/09 02:25:22;;;;;;;8.20;6.28;;;;;;;17.09;100.00;98319.47;5158536;27;20400;-57
2023/06/09 02:27:48;;;;;;;12.65;7.30;;;;;;;17.34;100.00;98264.28;5158823;27;20047;-54
2023/06/09 02:30:14;;;;;;;10.10;6.47;;;;;;;17.55;100.00;98234.50;5158425;27;20053;-59
2023/06/09 02:32:40;;;;;;;10.52;6.65;;;;;;;17.79;100.00;98199.06;5158354;27;20061;-59
2023/06/09 02:35:07;;;;;;;12.95;6.60;;;;;;;17.92;100.00;98185.25;5158300;27;20263;-54
2023/06/09 02:37:35;;;;;;;13.25;7.10;;;;;;;18.06;100.00;98180.09;5158466;27;20043;-61
2023/06/09 02:40:01;;;;;;;22.45;7.32;;;;;;;18.03;100.00;98175.44;5158192;27;20077;-63
2023/06/09 02:42:27;;;;;;;10.70;6.75;;;;;;;18.00;100.00;98176.31;5158183;27;20102;-63
2023/06/09 02:44:52;;;;;;;11.63;6.78;;;;;;;18.04;100.00;98181.75;5158523;27;20137;-62
2023/06/09 02:47:18;;;;;;;9.98;6.50;;;;;;;18.24;100.00;98171.25;5158285;27;20129;-59
2023/06/09 02:49:45;;;;;;;8.98;6.20;;;;;;;18.62;100.00;98175.31;5158505;27;20051;-55
2023/06/09 02:52:11;;;;;;;9.68;6.72;;;;;;;18.71;100.00;98181.75;5158211;27;20046;-58
2023/06/09 02:54:37;;;;;;;11.63;6.82;;;;;;;18.81;100.00;98196.56;5158494;27;20363;-55
2023/06/09 02:57:04;;;;;;;10.18;6.47;;;;;;;19.18;100.00;98210.88;5158061;27;20138;-61
2023/06/09 02:59:30;;;;;;;12.77;6.93;;;;;;;19.24;100.00;98218.22;5158373;27;20055;-63
2023/06/09 03:01:56;;;;;;;14.02;7.47;;;;;;;19.47;100.00;98233.75;5158016;27;20138;-63
2023/06/09 03:04:23;;;;;;;12.20;6.82;;;;;;;19.53;100.00;98264.53;5158370;27;20119;-63
2023/06/09 03:06:50;;;;;;;11.48;6.97;;;;;;;19.91;100.00;98288.72;5157789;27;20324;-56
2023/06/09 03:09:18;;;;;;;13.60;7.03;;;;;;;20.06;100.00;98311.25;5157801;27;20055;-59
2023/06/09 03:11:44;;;;;;;22.95;7.20;;;;;;;20.33;100.00;98341.38;5158180;27;20050;-58
2023/06/09 03:14:10;;;;;;;12.15;6.25;;;;;;;20.34;100.00;98367.97;5157809;27;20432;-62
2023/06/09 03:16:36;;;;;;;13.48;6.72;;;;;;;20.58;100.00;98385.84;5157979;27;20137;-59
2023/06/09 03:19:02;;;;;;;10.40;7.07;;;;;;;20.65;100.00;98401.50;5157858;27;20061;-60
2023/06/09 03:21:28;;;;;;;10.73;6.72;;;;;;;21.02;100.00;98432.44;5158062;27;20297;-55
2023/06/09 03:23:56;;;;;;;13.23;7.10;;;;;;;21.36;100.00;98470.66;5157649;27;20046;-55
2023/06/09 03:26:23;;;;;;;14.15;6.97;;;;;;;21.67;100.00;98504.16;5157986;27;20046;-63
2023/06/09 03:28:49;;;;;;;9.18;6.50;;;;;;;21.82;100.00;98535.06;5157836;27;20042;-63
2023/06/09 03:31:17;;;;;;;12.98;7.00;;;;;;;22.01;100.00;98567.44;5158089;27;20082;-64
2023/06/09 03:33:42;;;;;;;13.32;7.45;;;;;;;22.11;100.00;98592.59;5157530;27;20047;-62
2023/06/09 03:36:09;;;;;;;12.35;8.43;;;;;;;22.42;100.00;98607.34;5157718;27;20153;-64
2023/06/09 03:38:35;;;;;;;12.98;6.65;;;;;;;22.68;100.00;98640.69;5157744;27;20050;-55
2023/06/09 03:41:02;;;;;;;13.88;6.38;;;;;;;22.91;100.00;98661.72;5157605;27;20051;-62
2023/06/09 03:43:29;;;;;;;8.82;6.88;;;;;;;23.16;100.00;98680.31;5158129;27;20053;-58
2023/06/09 03:45:54;;;;;;;13.48;7.18;;;;;;;23.16;100.00;98697.09;5160923;27;20046;-56
2023/06/09 03:48:20;;;;;;;13.93;8.88;;;;;;;23.60;100.00;98730.44;5160907;27;20424;-55
2023/06/09 03:50:47;;;;;;;14.13;7.60;;;;;;;23.87;100.00;98766.88;5160810;27;20086;-55
2023/06/09 03:53:13;;;;;;;13.32;9.20;;;;;;;24.14;100.00;98782.91;5161116;27;20051;-59
2023/06/09 03:55:39;;;;;;;14.45;8.77;;;;;;;24.41;100.00;98796.16;5160847;27;20427;-57
2023/06/09 03:58:06;;;;;;;14.07;8.27;;;;;;;24.31;100.00;98802.22;5161209;27;20138;-54
2023/06/09 04:00:32;;;;;;;11.80;8.50;;;;;;;24.58;100.00;98835.06;5160729;27;20053;-66
2023/06/09 04:02:58;;;;;;;15.30;8.45;;;;;;;24.70;100.00;98842.53;5161218;27;20065;-62
2023/06/09 04:05:25;;;;;;;10.98;6.70;;;;;;;24.80;100.00;98855.28;5160774;27;20046;-65
2023/06/09 04:07:52;;;;;;;13.43;7.65;;;;;;;24.96;100.00;98861.78;5160867;27;20111;-64
2023/06/09 04:10:18;;;;;;;11.07;7.88;;;;;;;25.18;100.00;98870.81;5160490;27;20107;-59
2023/06/09 04:12:44;;;;;;;11.13;7.88;;;;;;;25.46;100.00;98882.75;5160609;27;20069;-60
2023/06/09 04:15:10;;;;;;;12.93;7.85;;;;;;;25.49;100.00;98895.03;5160853;27;20051;-62
2023/06/09 04:17:37;;;;;;;12.80;7.80;;;;;;;25.62;100.00;98898.41;5160625;27;20440;-64
2023/06/09 04:20:04;;;;;;;8.68;7.10;;;;;;;26.03;100.00;98916.50;5160966;27;20062;-64
2023/06/09 04:22:30;;;;;;;11.20;6.72;;;;;;;26.09;100.00;98919.44;5161645;27;20051;-62
2023/06/09 04:24:56;;;;;;;9.50;7.15;;;;;;;26.56;100.00;98931.97;5161861;27;20385;-65
2023/06/09 04:27:23;;;;;;;18.70;6.97;;;;;;;26.54;100.00;98923.22;5160286;27;20143;-64
2023/06/09 04:29:50;;;;;;;11.13;7.50;;;;;;;26.62;100.00;98934.88;5160852;27;20113;-62
2023/06/09 04:32:16;;;;;;;13.13;6.97;;;;;;;27.04;100.00;98947.97;5160109;27;20051;-64
2023/06/09 04:34:45;;;;;;;8.68;7.35;;;;;;;26.92;100.00;98944.94;5160552;27;20134;-58
2023/06/09 04:37:12;;;;;;;10.23;6.78;;;;;;;26.93;100.00;98952.13;5160413;27;20146;-65
2023/06/09 04:39:41;;;;;;;9.05;6.15;;;;;;;27.51;100.00;98946.28;5160222;27;20053;-54
2023/06/09 04:42:07;;;;;;;9.75;6.30;;;;;;;27.59;100.00;98956.66;5160267;27;20046;-63
2023/06/09 04:44:34;;;;;;;9.25;6.47;;;;;;;27.37;100.00;98953.47;5160221;27;20340;-63
2023/06/09 04:47:02;;;;;;;9.43;6.15;;;;;;;27.69;100.00;98952.47;5160287;27;20137;-55
2023/06/09 04:49:30;;;;;;;10.40;6.68;;;;;;;27.67;100.00;98955.00;5159870;27;20051;-58
2023/06/09 04:51:57;;;;;;;10.90;6.53;;;;;;;28.01;100.00;98961.19;5160283;27;20133;-53
2023/06/09 04:54:25;;;;;;;7.55;6.78;;;;;;;28.60;94.29;98972.28;5159490;27;20137;-58
2023/06/09 04:56:52;;;;;;;13.48;6.05;;;;;;;28.29;96.04;98970.06;5160551;27;20065;-64
2023/06/09 04:59:18;;;;;;;12.02;6.20;;;;;;;28.55;95.40;98969.38;5159984;27;20050;-56
2023/06/09 05:01:46;;;;;;;12.65;6.05;;;;;;;28.69;93.51;98976.22;5159867;27;20480;-64
2023/06/09 05:04:12;;;;;;;15.38;6.80;;;;;;;28.60;93.42;98975.09;5159956;27;20426;-53
2023/06/09 05:06:40;;;;;;;8.13;5.68;;;;;;;28.99;88.13;98976.84;5159784;27;20053;-57
2023/06/09 05:09:06;;;;;;;13.07;6.03;;;;;;;29.36;85.93;98984.69;5159838;27;20047;-60
2023/06/09 05:11:32;;;;;;;10.50;5.68;;;;;;;29.12;85.88;98985.75;5159481;27;20058;-58
2023/06/09 05:13:58;;;;;;;11.40;6.13;;;;;;;29.39;83.56;98980.88;5159744;27;20058;-59
2023/06/09 05:16:25;;;;;;;8.13;5.50;;;;;;;29.09;85.83;98978.28;5159441;27;20046;-59
2023/06/09 05:18:51;;;;;;;12.70;5.78;;;;;;;29.44;84.05;98978.13;5159891;27;20088;-58
2023/06/09 05:21:17;;;;;;;10.02;5.38;;;;;;;29.90;80.95;98987.78;5159194;27;20321;-61
2023/06/09 05:23:44;;;;;;;11.18;5.35;;;;;;;30.31;77.71;98991.16;5159171;27;20061;-56
2023/06/09 05:26:11;;;;;;;9.35;5.35;;;;;;;30.24;79.45;98989.59;5158987;27;20093;-63
2023/06/09 05:28:37;;;;;;;12.30;5.18;;;;;;;30.31;76.78;98994.00;5158968;27;20046;-62
2023/06/09 05:31:03;;;;;;;7.22;5.90;;;;;;;30.77;75.30;98995.03;5159122;27;20053;-61
2023/06/09 05:33:29;;;;;;;9.13;4.85;;;;;;;30.93;74.07;98989.44;5159306;27;20078;-58
2023/06/09 05:35:55;;;;;;;11.48;5.05;;;;;;;31.36;72.36;98989.31;5159342;27;20043;-54
2023/06/09 05:38:23;;;;;;;11.25;4.80;;;;;;;31.39;71.20;98990.38;5159118;27;20042;-57
2023/06/09 05:40:49;;;;;;;11.93;5.13;;;;;;;31.03;73.17;98989.22;5159243;27;20050;-62
2023/06/09 05:43:15;;;;;;;9.23;4.55;;;;;;;30.74;71.93;98993.19;5159553;27;20051;-60
2023/06/09 05:45:41;;;;;;;10.38;4.80;;;;;;;31.26;69.20;99001.38;5159365;27;20057;-59
2023/06/09 05:48:07;;;;;;;6.10;4.38;;;;;;;31.30;67.27;99002.66;5159080;27;20137;-54
2023/06/09 05:50:33;;;;;;;13.00;4.75;;;;;;;31.33;67.18;98998.84;5159419;27;20178;-54
2023/06/09 05:52:59;;;;;;;13.73;5.20;;;;;;;31.46;68.54;98997.56;5158815;27;20416;-55
2023/06/09 05:55:25;;;;;;;12.35;4.93;;;;;;;31.49;65.34;98997.34;5159431;27;20046;-55
2023/06/09 05:57:52;;;;;;;6.30;4.85;;;;;;;31.81;65.18;99000.69;5159096;27;20150;-60
2023/06/09 06:00:19;;;;;;;9.32;4.72;;;;;;;31.70;68.19;98997.09;5158723;27;20483;-57
2023/06/09 06:02:46;;;;;;;11.75;5.13;;;;;;;31.95;66.88;99001.72;5159087;27;20050;-62
2023/06/09 06:05:12;;;;;;;8.23;4.90;;;;;;;32.50;65.33;98996.53;5158603;27;20051;-57
2023/06/09 06:07:39;;;;;;;7.28;5.18;;;;;;;32.21;65.80;98995.00;5157875;27;20053;-53
2023/06/09 06:10:06;;;;;;;10.18;5.28;;;;;;;32.60;64.36;99003.47;5158778;27;20051;-55
2023/06/09 06:12:32;;;;;;;21.83;6.00;;;;;;;32.86;64.67;99002.34;5158794;27;20463;-59
2023/06/09 06:14:59;;;;;;;14.75;5.60;;;;;;;33.07;63.11;99008.47;5158362;27;20089;-56
2023/06/09 06:17:25;;;;;;;12.30;6.57;;;;;;;32.51;63.10;99010.19;5158591;27;20058;-56
2023/06/09 06:19:51;;;;;;;14.10;6.47;;;;;;;32.31;63.11;99002.72;5158283;27;20062;-57
2023/06/09 06:22:17;;;;;;;11.80;6.20;;;;;;;32.20;63.49;99010.50;5158687;27;20046;-57
2023/06/09 06:24:43;;;;;;;17.40;6.70;;;;;;;32.27;62.03;99015.63;5158024;27;20139;-63
2023/06/09 06:27:11;;;;;;;17.33;5.90;;;;;;;31.83;62.39;99006.63;5158143;27;20133;-63
2023/06/09 06:29:38;;;;;;;13.75;6.05;;;;;;;31.60;63.31;99008.66;5158082;27;20360;-62
2023/06/09 06:32:06;;;;;;;14.73;6.38;;;;;;;32.39;61.54;99010.69;5158218;27;20111;-60
2023/06/09 06:34:32;;;;;;;12.43;5.95;;;;;;;33.20;60.41;99017.94;5158095;27;20082;-56
2023/06/09 06:36:58;;;;;;;14.68;5.95;;;;;;;32.99;60.03;99019.56;5157923;27;20046;-55
2023/06/09 06:39:24;;;;;;;14.50;5.78;;;;;;;33.79;59.26;99017.81;5158223;27;20122;-57
2023/06/09 06:41:50;;;;;;;9.55;5.22;;;;;;;33.66;58.22;99012.78;5157805;27;20526;-59
2023/06/09 06:44:16;;;;;;;12.25;5.90;;;;;;;32.95;56.35;99028.34;5158130;27;20082;-61
2023/06/09 06:46:42;;;;;;;8.93;6.32;;;;;;;32.21;59.28;99021.31;5157849;27;20133;-60
2023/06/09 06:49:08;;;;;;;15.80;5.68;;;;;;;32.94;56.71;99014.69;5158230;27;20387;-62
2023/06/09 06:51:34;;;;;;;13.32;5.85;;;;;;;32.99;57.07;99020.38;5157717;27;20110;-62
2023/06/09 06:54:02;;;;;;;14.88;5.65;;;;;;;33.44;56.97;99007.97;5158473;27;20050;-61
2023/06/09 06:56:28;;;;;;;11.10;5.60;;;;;;;33.01;58.35;99017.00;5157773;27;20446;-61
2023/06/09 06:58:54;;;;;;;9.68;4.82;;;;;;;33.17;58.17;99015.38;5157859;27;20050;-59
2023/06/09 07:01:21;;;;;;;12.95;5.40;;;;;;;33.20;58.93;99009.41;5157651;27;20062;-56
2023/06/09 07:03:47;;;;;;;13.68;5.13;;;;;;;33.81;58.53;99006.69;5157917;27;20046;-61
2023/06/09 07:06:14;;;;;;;12.02;5.45;;;;;;;33.88;57.11;99000.44;5157593;27;20313;-58
2023/06/09 07:08:40;;;;;;;16.55;5.20;;;;;;;33.77;57.65;99006.22;5157560;27;20103;-60
2023/06/09 07:11:06;;;;;;;12.63;4.90;;;;;;;33.87;58.73;99001.75;5158064;27;20055;-59
2023/06/09 07:13:31;;;;;;;10.80;4.78;;;;;;;33.80;57.92;99000.25;5157446;27;20089;-53
2023/06/09 07:16:00;;;;;;;18.35;5.68;;;;;;;33.29;58.76;99008.34;5157956;27;20459;-59
2023/06/09 07:18:26;;;;;;;17.35;5.00;;;;;;;33.73;57.29;99001.59;5159634;27;20050;-54
2023/06/09 07:20:52;;;;;;;11.70;5.05;;;;;;;33.79;57.86;99006.44;5161617;27;20107;-59
2023/06/09 07:23:19;;;;;;;11.18;5.47;;;;;;;34.32;58.04;98999.28;5161425;27;20047;-61
2023/06/09 07:25:45;;;;;;;12.85;6.45;;;;;;;33.67;58.14;99000.84;5161112;27;20523;-58
2023/06/09 07:28:11;;;;;;;9.45;5.60;;;;;;;33.95;58.12;99005.53;5161020;27;20502;-53
2023/06/09 07:30:41;;;;;;;11.32;6.10;;;;;;;34.47;58.34;99001.69;5161321;27;20069;-55
2023/06/09 07:33:08;;;;;;;15.23;6.63;;;;;;;33.68;60.84;98999.56;5161047;27;20138;-54
2023/06/09 07:35:34;;;;;;;16.23;6.05;;;;;;;34.51;58.32;99002.16;5161051;27;20334;-54
2023/06/09 07:38:00;;;;;;;16.00;5.65;;;;;;;33.50;59.58;99000.22;5161269;27;20081;-59
2023/06/09 07:40:27;;;;;;;9.98;6.50;;;;;;;33.11;60.39;99006.09;5160917;27;20054;-62
2023/06/09 07:42:53;;;;;;;12.88;6.60;;;;;;;33.23;60.65;99005.53;5161076;27;20187;-60
2023/06/09 07:45:19;;;;;;;14.05;6.53;;;;;;;33.62;58.85;98998.84;5160938;27;20088;-61
2023/06/09 07:47:45;;;;;;;13.57;5.75;;;;;;;34.14;58.41;98997.13;5161503;27;20157;-56
2023/06/09 07:50:11;;;;;;;10.65;5.93;;;;;;;33.83;58.77;98995.56;5160806;27;20173;-60
2023/06/09 07:52:38;;;;;;;13.40;5.55;;;;;;;34.89;58.19;98996.56;5160767;27;20093;-62
2023/06/09 07:55:06;;;;;;;9.93;5.45;;;;;;;34.63;56.77;98994.31;5161026;27;20137;-57
2023/06/09 07:57:33;;;;;;;9.68;4.75;;;;;;;34.86;55.40;99000.50;5160753;27;20046;-63
2023/06/09 07:59:59;;;;;;;12.32;4.57;;;;;;;34.78;55.58;99000.31;5160584;27;20138;-61
2023/06/09 08:02:24;;;;;;;10.23;4.78;;;;;;;35.14;55.39;98997.28;5160603;27;20061;-62
2023/06/09 08:04:51;;;;;;;10.95;5.47;;;;;;;34.96;55.34;98995.97;5160587;27;20420;-62
2023/06/09 08:07:16;;;;;;;11.52;5.03;;;;;;;34.35;56.27;99000.25;5160612;27;20051;-57
2023/06/09 08:09:43;;;;;;;17.10;5.43;;;;;;;34.46;57.08;99005.06;5160660;27;20061;-59
2023/06/09 08:12:13;;;;;;;12.05;5.10;;;;;;;34.70;55.02;98998.63;5160968;27;20134;-67
2023/06/09 08:14:39;;;;;;;15.90;5.32;;;;;;;35.02;55.52;98999.53;5160819;27;20101;-60
2023/06/09 08:17:05;;;;;;;8.95;4.40;;;;;;;35.28;55.26;99003.84;5160474;27;20047;-61
2023/06/09 08:19:31;;;;;;;9.35;4.22;;;;;;;35.21;53.55;99010.91;5160853;27;20115;-61
2023/06/09 08:21:57;;;;;;;15.45;4.32;;;;;;;35.18;52.03;98999.84;5160479;27;20051;-56
2023/06/09 08:24:23;;;;;;;9.57;4.65;;;;;;;34.90;52.42;98995.25;5160508;27;20361;-56
2023/06/09 08:26:49;;;;;;;12.98;5.53;;;;;;;34.66;53.16;99002.53;5160650;27;20050;-61
2023/06/09 08:29:15;;;;;;;8.18;5.07;;;;;;;34.23;54.42;98998.84;5159622;27;20103;-62
2023/06/09 08:31:42;;;;;;;12.27;5.03;;;;;;;35.10;52.98;99002.53;5160289;27;20137;-56
2023/06/09 08:34:08;;;;;;;8.13;4.45;;;;;;;34.73;52.92;98998.31;5160015;27;20167;-57
2023/06/09 08:36:34;;;;;;;18.98;5.00;;;;;;;33.98;54.19;98999.56;5160332;27;20133;-56
2023/06/09 08:39:01;;;;;;;6.15;3.83;;;;;;;34.47;52.43;98998.84;5160187;27;20055;-57
2023/06/09 08:41:32;;;;;;;9.02;4.00;;;;;;;34.35;53.64;99000.25;5160346;27;20439;-62
2023/06/09 08:43:58;;;;;;;13.43;4.40;;;;;;;33.94;52.71;98993.41;5159996;27;20046;-61
2023/06/09 08:46:27;;;;;;;13.38;5.00;;;;;;;34.37;53.43;99001.28;5160386;27;20073;-59
2023/06/09 08:48:57;;;;;;;13.43;5.10;;;;;;;34.37;52.40;99001.28;5160194;27;20138;-56
2023/06/09 08:51:25;;;;;;;7.65;4.65;;;;;;;34.38;53.98;98993.50;5159978;27;20051;-62
2023/06/09 08:53:52;;;;;;;13.25;4.85;;;;;;;34.99;52.52;98991.25;5160024;27;20133;-62
2023/06/09 08:56:19;;;;;;;19.80;4.80;;;;;;;34.94;52.51;99001.41;5160069;27;20107;-55
2023/06/09 08:58:47;;;;;;;9.35;4.35;;;;;;;32.95;53.44;98999.19;5159647;27;20361;-59
2023/06/09 09:01:13;;;;;;;5.00;3.75;;;;;;;33.32;52.47;98995.13;5159321;27;20518;-59
2023/06/09 09:03:39;;;;;;;7.88;4.28;;;;;;;34.09;51.42;98990.19;5159603;27;20050;-55
2023/06/09 09:06:06;;;;;;;11.05;4.35;;;;;;;34.64;52.24;98985.22;5159556;27;20051;-57
2023/06/09 09:08:32;;;;;;;11.23;4.43;;;;;;;34.90;52.58;98981.78;5159964;27;20062;-61
2023/06/09 09:10:58;;;;;;;6.00;4.22;;;;;;;35.41;51.73;98986.78;5159551;27;20061;-61
2023/06/09 09:13:29;;;;;;;8.77;4.38;;;;;;;34.44;51.56;98972.22;5159847;27;20104;-59
2023/06/09 09:15:55;;;;;;;10.68;4.18;;;;;;;34.82;52.15;98986.56;5159689;27;20051;-60
2023/06/09 09:18:21;;;;;;;7.28;3.80;;;;;;;35.24;50.61;98977.72;5159695;27;20083;-57
2023/06/09 09:20:48;;;;;;;5.47;4.40;;;;;;;35.28;50.92;98978.19;5159368;27;20202;-55
2023/06/09 09:23:15;;;;;;;6.80;3.95;;;;;;;35.16;50.61;98982.50;5159568;27;20208;-53
2023/06/09 09:25:43;;;;;;;11.70;4.68;;;;;;;34.32;51.60;98979.38;5159654;27;20050;-55
2023/06/09 09:28:12;;;;;;;7.00;4.57;;;;;;;33.91;52.23;98979.47;5159529;27;20336;-64
2023/06/09 09:30:56;;;;;;;9.38;4.47;;;;;;;34.28;51.37;98975.25;5159596;27;20058;-61
2023/06/09 09:33:23;;;;;;;12.80;4.22;;;;;;;34.43;51.52;98978.47;5159155;27;20188;-59
2023/06/09 09:35:51;;;;;;;11.57;4.88;;;;;;;34.10;51.40;98973.91;5159411;27;20137;-56
2023/06/09 09:38:20;;;;;;;8.43;4.40;;;;;;;33.73;52.06;98961.78;5158732;27;20134;-60
2023/06/09 09:40:47;;;;;;;7.40;4.28;;;;;;;34.49;51.73;98964.16;5158396;27;20138;-55
2023/06/09 09:43:14;;;;;;;4.63;3.65;;;;;;;33.99;51.05;98954.84;5158770;27;20323;-56
2023/06/09 09:45:43;;;;;;;8.57;3.78;;;;;;;34.43;50.40;98952.84;5159115;27;20074;-57
2023/06/09 09:48:11;;;;;;;9.35;4.30;;;;;;;33.92;51.70;98947.66;5159208;27;20108;-55
2023/06/09 09:50:37;;;;;;;10.88;4.40;;;;;;;32.68;52.35;98944.09;5158936;27;20050;-56
2023/06/09 09:53:03;;;;;;;6.97;4.00;;;;;;;32.48;53.46;98936.69;5159119;27;20138;-61
2023/06/09 09:55:31;;;;;;;7.28;3.92;;;;;;;33.02;54.07;98942.66;5158736;27;20428;-60
2023/06/09 09:58:00;;;;;;;10.35;3.95;;;;;;;33.70;52.90;98927.97;5159386;27;20057;-58
2023/06/09 10:00:27;;;;;;;7.85;4.47;;;;;;;33.97;50.60;98932.63;5158599;27;20046;-53
2023/06/09 10:02:59;;;;;;;9.02;4.28;;;;;;;34.31;51.56;98926.59;5159205;27;20050;-53
2023/06/09 10:05:29;;;;;;;9.55;4.72;;;;;;;34.00;50.28;98927.19;5158727;27;20074;-59
2023/06/09 10:07:59;;;;;;;13.88;4.50;;;;;;;34.15;50.46;98916.94;5158813;27;20141;-58
2023/06/09 10:10:26;;;;;;;13.00;4.40;;;;;;;33.67;50.85;98909.91;5158662;27;20099;-59
2023/06/09 10:12:55;;;;;;;11.68;4.72;;;;;;;34.14;50.05;98912.56;5158650;27;20054;-57
2023/06/09 10:15:21;;;;;;;8.27;4.20;;;;;;;34.32;49.71;98916.75;5158734;27;20142;-58
2023/06/09 10:17:51;;;;;;;8.45;3.97;;;;;;;34.87;49.15;98910.91;5158265;27;20127;-62
2023/06/09 10:20:18;;;;;;;12.48;4.50;;;;;;;34.47;49.15;98904.94;5158514;27;20050;-61
2023/06/09 10:22:44;;;;;;;9.02;4.07;;;;;;;34.28;50.69;98899.19;5158259;27;20146;-55
2023/06/09 10:25:12;;;;;;;11.38;4.10;;;;;;;33.48;51.39;98900.47;5158614;27;20412;-62
2023/06/09 10:27:38;;;;;;;5.75;4.20;;;;;;;32.58;51.65;98901.81;5158135;27;20060;-59
2023/06/09 10:30:07;;;;;;;8.43;4.70;;;;;;;32.72;52.38;98893.50;5158540;27;20153;-62
2023/06/09 10:32:37;;;;;;;10.68;4.10;;;;;;;33.24;52.91;98890.59;5158331;27;20187;-56
2023/06/09 10:35:05;;;;;;;15.02;4.55;;;;;;;33.31;51.51;98897.78;5158176;27;20381;-61
2023/06/09 10:37:33;;;;;;;8.93;4.40;;;;;;;32.76;51.53;98888.31;5158569;27;20378;-60
2023/06/09 10:40:09;;;;;;;11.38;3.80;;;;;;;32.98;52.05;98898.78;5158106;27;20145;-59
2023/06/09 10:42:46;;;;;;;6.05;3.83;;;;;;;32.60;52.29;98887.13;5158750;27;20137;-52
2023/06/09 10:45:14;;;;;;;11.15;5.28;;;;;;;32.17;53.22;98887.50;5157878;27;20337;-59
2023/06/09 10:47:45;;;;;;;14.88;4.30;;;;;;;31.68;53.97;98880.63;5158459;27;20138;-60
2023/06/09 10:50:25;;;;;;;9.27;4.15;;;;;;;31.28;53.64;98880.63;5157840;27;20142;-59
2023/06/09 10:52:55;;;;;;;7.03;3.85;;;;;;;30.66;55.81;98871.25;5157434;27;20057;-55
2023/06/09 10:55:23;;;;;;;4.85;3.70;;;;;;;30.41;56.50;98878.63;5157984;27;20065;-55
2023/06/09 10:57:50;;;;;;;6.43;4.30;;;;;;;30.10;57.37;98871.78;5157804;27;20145;-56
2023/06/09 11:00:17;;;;;;;15.95;4.05;;;;;;;29.89;57.32;98868.31;5157853;27;20129;-54
2023/06/09 11:02:48;;;;;;;8.02;5.07;;;;;;;29.75;57.99;98861.53;5157712;27;20046;-60
2023/06/09 11:05:15;;;;;;;9.05;4.68;;;;;;;29.52;58.94;98863.44;5157853;27;20078;-59
2023/06/09 11:07:43;;;;;;;8.02;4.72;;;;;;;29.47;59.21;98861.34;5157684;27;20051;-55
2023/06/09 11:10:26;;;;;;;10.48;4.53;;;;;;;29.24;60.78;98865.25;5157867;27;20046;-53
2023/06/09 11:12:53;;;;;;;8.27;4.43;;;;;;;29.09;60.76;98856.94;5157645;27;20047;-55
2023/06/09 11:15:20;;;;;;;11.48;3.92;;;;;;;28.85;60.63;98865.63;5157853;27;20119;-59
2023/06/09 11:17:48;;;;;;;10.02;4.93;;;;;;;28.64;62.22;98872.59;5157797;27;20057;-60
2023/06/09 11:20:15;;;;;;;23.58;4.78;;;;;;;28.23;68.02;98869.78;5157299;27;20137;-54
2023/06/09 11:23:00;;;;;;;21.52;4.68;;;;;;;28.12;75.24;98864.75;5157636;27;20368;-55
2023/06/09 11:25:40;;;;;;;15.52;4.50;;;;;;;27.38;82.53;98864.94;5157480;27;20421;-59